Time;durP1;ratioP1;P1;durP2;ratioP2;P2;SDS_P1;SDS_P2;PMS_P1;PMS_P2;Temp;Humidity;BMP_temperature;BMP_pressure;BME280_temperature;BME280_humidity;BME280_pressure;Samples;Min_cycle;Max_cycle;Signal;HPM_P1;HPM_P2
2021/08/13 00:02:29;;;;;;;8.23;7.33;;;;;;;12.42;74.25;99613.97;2291389;78;20924;-79
2021/08/13 00:05:30;;;;;;;10.55;8.05;;;;;;;12.38;74.29;99616.08;2291289;78;21344;-80
2021/08/13 00:08:30;;;;;;;8.78;7.90;;;;;;;12.43;74.74;99619.66;2291069;78;20992;-81
2021/08/13 00:11:31;;;;;;;12.07;8.68;;;;;;;12.47;74.69;99617.97;2291524;78;20948;-80
2021/08/13 00:14:31;;;;;;;12.43;8.90;;;;;;;12.41;74.47;99618.32;2291188;78;20960;-80
2021/08/13 00:17:32;;;;;;;9.90;8.90;;;;;;;12.33;74.67;99618.63;2291198;78;20952;-80
2021/08/13 00:20:34;;;;;;;9.70;8.68;;;;;;;12.29;74.70;99612.87;2291374;78;20959;-80
2021/08/13 00:23:35;;;;;;;11.25;8.53;;;;;;;12.28;74.82;99612.85;2290952;78;21336;-80
2021/08/13 00:26:35;;;;;;;9.63;8.23;;;;;;;12.26;74.94;99610.20;2291107;78;20979;-80
2021/08/13 00:29:36;;;;;;;13.28;8.20;;;;;;;12.24;74.82;99605.37;2291085;78;20985;-80
2021/08/13 00:32:36;;;;;;;9.85;8.73;;;;;;;12.20;74.84;99606.61;2291025;78;20897;-79
2021/08/13 00:35:37;;;;;;;13.45;8.88;;;;;;;12.17;74.96;99611.78;2291034;78;21287;-78
2021/08/13 00:38:37;;;;;;;11.83;8.40;;;;;;;12.11;74.97;99608.59;2283998;78;20958;-80
2021/08/13 00:41:38;;;;;;;8.90;7.92;;;;;;;12.07;74.96;99602.43;2283915;78;21004;-79
2021/08/13 00:44:38;;;;;;;9.65;8.60;;;;;;;12.03;75.04;99608.46;2283856;78;20914;-79
2021/08/13 00:47:38;;;;;;;9.95;8.95;;;;;;;12.01;75.21;99611.48;2283951;78;21361;-79
2021/08/13 00:50:39;;;;;;;13.90;8.68;;;;;;;12.03;75.36;99611.51;2283880;78;21349;-80
2021/08/13 00:53:40;;;;;;;10.10;9.13;;;;;;;11.98;75.18;99610.11;2283752;78;20977;-79
2021/08/13 00:56:40;;;;;;;13.60;8.83;;;;;;;11.96;75.17;99617.05;2285350;78;20920;-80
2021/08/13 00:59:41;;;;;;;9.03;8.23;;;;;;;11.95;75.23;99627.06;2290331;78;20971;-79
2021/08/13 01:02:41;;;;;;;43.30;10.90;;;;;;;11.92;75.24;99623.08;2290426;78;20936;-79
2021/08/13 01:05:42;;;;;;;9.00;7.92;;;;;;;12.03;76.06;99624.59;2290298;78;21003;-79
2021/08/13 01:08:42;;;;;;;10.13;8.80;;;;;;;12.03;75.40;99632.02;2290011;76;21007;-79
2021/08/13 01:11:43;;;;;;;11.08;9.08;;;;;;;11.99;75.34;99630.63;2290704;78;20959;-79
2021/08/13 01:14:43;;;;;;;9.30;8.40;;;;;;;11.94;75.48;99627.03;2290663;78;21368;-79
2021/08/13 01:17:44;;;;;;;11.53;8.90;;;;;;;11.92;75.38;99623.08;2291059;78;21328;-79
2021/08/13 01:20:44;;;;;;;10.95;8.88;;;;;;;11.91;75.45;99626.98;2291243;78;20982;-79
2021/08/13 01:23:45;;;;;;;14.75;8.95;;;;;;;11.88;75.39;99621.27;2290645;78;20960;-80
2021/08/13 01:26:45;;;;;;;10.82;9.33;;;;;;;11.86;75.37;99613.81;2290848;78;20908;-80
2021/08/13 01:29:46;;;;;;;10.08;9.08;;;;;;;11.85;75.45;99611.17;2290917;78;20928;-79
2021/08/13 01:32:47;;;;;;;39.70;11.68;;;;;;;11.84;75.42;99612.91;2290755;78;21300;-79
2021/08/13 01:35:48;;;;;;;14.25;8.75;;;;;;;11.82;75.65;99609.80;2290743;78;20980;-79
2021/08/13 01:38:48;;;;;;;10.23;9.10;;;;;;;11.80;75.46;99614.58;2290892;78;21388;-80
2021/08/13 01:41:49;;;;;;;10.17;9.27;;;;;;;11.79;75.58;99606.70;2290780;78;20924;-80
2021/08/13 01:44:50;;;;;;;13.70;10.60;;;;;;;11.79;75.76;99606.70;2290854;78;20948;-78
2021/08/13 01:47:50;;;;;;;12.00;9.67;;;;;;;11.77;75.65;99612.30;2288478;78;21040;-79
2021/08/13 01:50:51;;;;;;;11.53;9.63;;;;;;;11.74;75.67;99608.31;2290475;78;21020;-78
2021/08/13 01:53:52;;;;;;;16.77;9.53;;;;;;;11.73;75.77;99611.78;2290830;78;20955;-80
2021/08/13 01:56:53;;;;;;;11.30;10.15;;;;;;;11.67;75.98;99611.23;2290883;78;20932;-79
2021/08/13 01:59:53;;;;;;;26.87;11.28;;;;;;;11.65;76.13;99610.75;2290757;78;21293;-80
2021/08/13 02:02:54;;;;;;;11.33;9.53;;;;;;;11.61;76.19;99615.47;2290791;78;20948;-80
2021/08/13 02:05:54;;;;;;;11.75;9.48;;;;;;;11.60;76.09;99612.39;2290818;78;20968;-80
2021/08/13 02:08:55;;;;;;;78.35;15.40;;;;;;;11.59;76.24;99618.47;2284383;78;20962;-79
2021/08/13 02:11:55;;;;;;;12.75;9.35;;;;;;;11.56;76.23;99612.76;2280994;78;20949;-79
2021/08/13 02:14:56;;;;;;;15.03;9.60;;;;;;;11.59;76.04;99625.02;2281119;78;20957;-79
2021/08/13 02:17:56;;;;;;;12.18;10.08;;;;;;;11.56;76.05;99615.80;2273723;78;21014;-80
2021/08/13 02:20:57;;;;;;;11.67;9.63;;;;;;;11.52;76.01;99617.47;2258373;78;20937;-79
2021/08/13 02:23:57;;;;;;;13.83;9.27;;;;;;;11.47;75.98;99618.69;2280830;78;20978;-79
2021/08/13 02:26:58;;;;;;;12.10;9.57;;;;;;;11.47;76.10;99619.99;2280921;78;20973;-79
2021/08/13 02:29:58;;;;;;;12.18;9.23;;;;;;;11.46;76.06;99614.73;2280988;78;21329;-79
2021/08/13 02:32:59;;;;;;;14.45;9.50;;;;;;;11.42;76.07;99616.83;2280757;77;20926;-79
2021/08/13 02:35:59;;;;;;;12.15;9.50;;;;;;;11.40;76.15;99612.87;2280914;78;20985;-79
2021/08/13 02:39:00;;;;;;;10.77;8.73;;;;;;;11.36;76.01;99611.05;2280953;78;20938;-79
2021/08/13 02:42:01;;;;;;;9.87;8.87;;;;;;;11.36;76.11;99610.16;2280366;78;21005;-79
2021/08/13 02:45:02;;;;;;;18.10;9.93;;;;;;;11.34;76.12;99608.83;2281103;77;21017;-80
2021/08/13 02:48:03;;;;;;;18.85;10.20;;;;;;;11.30;76.40;99608.30;2281119;77;21013;-81
2021/08/13 02:51:04;;;;;;;13.33;9.50;;;;;;;11.29;76.57;99614.38;2280793;78;20915;-80
2021/08/13 02:54:04;;;;;;;9.47;8.57;;;;;;;11.28;76.31;99610.00;2281156;78;21274;-81
2021/08/13 02:57:05;;;;;;;12.90;9.23;;;;;;;11.25;76.13;99606.41;2281329;78;21342;-79
2021/08/13 03:00:06;;;;;;;10.20;9.17;;;;;;;11.20;76.13;99612.84;2281038;78;20935;-79
2021/08/13 03:03:06;;;;;;;44.73;13.07;;;;;;;11.16;76.25;99611.02;2281085;78;20938;-80
2021/08/13 03:06:10;;;;;;;13.23;8.90;;;;;;;11.13;76.65;99613.56;2281150;78;21410;-79
2021/08/13 03:09:10;;;;;;;12.37;9.17;;;;;;;11.14;76.64;99617.52;2250305;77;20979;-79
2021/08/13 03:12:11;;;;;;;17.27;10.17;;;;;;;11.13;76.41;99618.79;2248805;78;20936;-80
2021/08/13 03:15:11;;;;;;;14.40;9.33;;;;;;;11.15;76.68;99626.23;2248804;79;20913;-80
2021/08/13 03:18:12;;;;;;;22.23;20.00;;;;;;;11.09;76.40;99623.48;2248650;78;21427;-79
2021/08/13 03:21:13;;;;;;;12.53;9.13;;;;;;;11.05;76.33;99624.27;2248967;78;20936;-82
2021/08/13 03:24:14;;;;;;;15.40;9.33;;;;;;;11.04;76.46;99628.61;2249544;79;20944;-80
2021/08/13 03:27:14;;;;;;;9.80;8.80;;;;;;;11.04;76.66;99623.81;2249065;79;20999;-81
2021/08/13 03:30:14;;;;;;;11.43;9.40;;;;;;;11.07;76.47;99619.96;2248567;78;20947;-79
2021/08/13 03:33:15;;;;;;;15.87;9.27;;;;;;;11.06;76.40;99618.20;2248064;78;20987;-79
2021/08/13 03:36:16;;;;;;;13.13;9.33;;;;;;;11.05;76.43;99620.35;2248509;79;20956;-78
2021/08/13 03:39:16;;;;;;;24.57;10.10;;;;;;;11.07;76.45;99621.27;2248404;79;20947;-79
2021/08/13 03:42:17;;;;;;;17.37;9.40;;;;;;;11.09;76.84;99615.23;2248269;78;20991;-79
2021/08/13 03:45:17;;;;;;;22.33;9.77;;;;;;;11.11;76.58;99609.61;2248525;78;20936;-78
2021/08/13 03:48:18;;;;;;;11.77;9.87;;;;;;;11.14;76.75;99612.72;2248507;78;21003;-79
2021/08/13 03:51:18;;;;;;;27.63;10.73;;;;;;;11.17;76.69;99609.74;2248627;78;20959;-78
2021/08/13 03:54:19;;;;;;;17.63;9.83;;;;;;;11.21;76.85;99615.92;2247623;79;21015;-78
2021/08/13 03:57:19;;;;;;;9.93;8.93;;;;;;;11.31;76.87;99615.30;2247735;78;20975;-78
2021/08/13 04:00:20;;;;;;;486.12;402.43;;;;;;;11.41;76.84;99613.33;2248150;79;20947;-79
2021/08/13 04:03:21;;;;;;;29.98;22.35;;;;;;;11.52;76.94;99606.13;2247968;78;20955;-77
2021/08/13 04:06:21;;;;;;;16.62;12.78;;;;;;;11.66;76.87;99619.05;2247372;79;20932;-79
2021/08/13 04:09:22;;;;;;;15.10;9.60;;;;;;;11.79;76.66;99614.55;2277906;77;20962;-78
2021/08/13 04:12:22;;;;;;;16.37;9.78;;;;;;;11.96;76.76;99614.86;2280752;78;21340;-78
2021/08/13 04:15:23;;;;;;;15.75;9.28;;;;;;;12.10;76.55;99609.03;2280620;78;21361;-80
2021/08/13 04:18:23;;;;;;;10.32;9.23;;;;;;;12.30;76.59;99612.02;2280403;78;21033;-79
2021/08/13 04:21:24;;;;;;;12.55;8.85;;;;;;;12.49;76.53;99609.71;2280813;78;20962;-78
2021/08/13 04:24:24;;;;;;;26.30;11.68;;;;;;;12.62;76.14;99611.67;2279238;78;20969;-79
2021/08/13 04:27:25;;;;;;;9.98;8.50;;;;;;;12.72;76.26;99615.77;2279899;78;20993;-79
2021/08/13 04:30:25;;;;;;;9.18;8.28;;;;;;;12.85;76.18;99612.91;2280582;78;21401;-78
2021/08/13 04:33:26;;;;;;;12.95;10.20;;;;;;;13.00;76.21;99613.16;2280270;78;20916;-78
2021/08/13 04:36:27;;;;;;;10.45;8.73;;;;;;;13.15;76.11;99615.11;2279688;78;20961;-79
2021/08/13 04:39:28;;;;;;;10.25;8.10;;;;;;;13.35;76.11;99616.29;2280560;78;21009;-79
2021/08/13 04:42:28;;;;;;;11.60;7.92;;;;;;;13.55;75.96;99608.67;2279993;78;20922;-78
2021/08/13 04:45:29;;;;;;;14.03;8.70;;;;;;;13.71;75.60;99616.28;2280569;78;20926;-79
2021/08/13 04:48:29;;;;;;;12.07;8.65;;;;;;;13.89;75.59;99617.84;2279862;78;21114;-79
2021/08/13 04:51:30;;;;;;;27.32;9.63;;;;;;;14.09;75.37;99614.53;2280727;78;21384;-77
2021/08/13 04:54:30;;;;;;;24.00;10.05;;;;;;;14.18;75.12;99618.13;2280224;78;21392;-78
2021/08/13 04:57:31;;;;;;;16.87;9.65;;;;;;;14.36;75.33;99623.98;2280525;78;20997;-80
2021/08/13 05:00:31;;;;;;;13.10;8.83;;;;;;;14.58;75.07;99620.70;2280911;78;20949;-80
2021/08/13 05:03:32;;;;;;;112.70;16.82;;;;;;;14.77;75.29;99612.99;2280957;78;20953;-77
2021/08/13 05:06:35;;;;;;;16.15;9.58;;;;;;;14.99;75.19;99612.27;2279687;78;21005;-79
2021/08/13 05:09:36;;;;;;;16.67;9.08;;;;;;;15.32;75.14;99612.89;2287971;77;21419;-80
2021/08/13 05:12:36;;;;;;;8.90;7.62;;;;;;;15.69;74.91;99614.43;2289163;78;20952;-78
2021/08/13 05:15:37;;;;;;;13.43;8.48;;;;;;;16.04;74.40;99611.89;2288950;78;21354;-78
2021/08/13 05:18:37;;;;;;;78.15;14.93;;;;;;;16.25;73.66;99615.88;2289551;78;21030;-81
2021/08/13 05:21:38;;;;;;;13.05;8.78;;;;;;;16.43;73.28;99616.33;2289385;78;20986;-79
2021/08/13 05:24:38;;;;;;;13.62;8.33;;;;;;;16.59;72.93;99622.52;2289743;78;20951;-80
2021/08/13 05:27:40;;;;;;;21.73;8.88;;;;;;;16.74;72.48;99618.59;2289652;78;20963;-79
2021/08/13 05:30:40;;;;;;;13.45;8.33;;;;;;;16.87;72.10;99615.06;2290007;78;20958;-79
2021/08/13 05:33:41;;;;;;;11.80;8.73;;;;;;;16.97;71.48;99613.28;2290901;78;21343;-79
2021/08/13 05:36:44;;;;;;;15.58;8.40;;;;;;;17.07;71.56;99618.55;2291025;78;20991;-78
2021/08/13 05:39:44;;;;;;;9.20;8.25;;;;;;;17.22;71.10;99625.54;2290531;78;21014;-79
2021/08/13 05:42:45;;;;;;;58.10;12.68;;;;;;;17.30;70.73;99626.40;2289749;78;20928;-78
2021/08/13 05:45:45;;;;;;;23.40;10.95;;;;;;;17.63;70.62;99629.39;2290791;78;21029;-79
2021/08/13 05:48:46;;;;;;;122.70;16.00;;;;;;;17.96;70.07;99630.15;2290202;78;21003;-78
2021/08/13 05:51:46;;;;;;;11.45;9.13;;;;;;;18.17;69.31;99639.27;2290249;78;20948;-78
2021/08/13 05:54:47;;;;;;;10.78;8.93;;;;;;;18.25;68.99;99632.20;2290718;78;21299;-78
2021/08/13 05:57:47;;;;;;;12.78;9.03;;;;;;;18.37;68.96;99633.44;2290497;78;21584;-79
2021/08/13 06:00:48;;;;;;;26.60;12.80;;;;;;;18.52;68.55;99636.86;2289908;78;20943;-77
2021/08/13 06:03:48;;;;;;;13.32;11.78;;;;;;;18.76;67.74;99636.69;2290328;78;21010;-78
2021/08/13 06:06:49;;;;;;;26.65;9.28;;;;;;;19.08;67.39;99635.98;2289620;78;21361;-80
2021/08/13 06:09:49;;;;;;;14.45;9.45;;;;;;;19.39;66.92;99630.36;2282131;78;20993;-78
2021/08/13 06:12:50;;;;;;;13.88;8.63;;;;;;;19.70;65.95;99629.13;2281146;78;20931;-77
2021/08/13 06:15:51;;;;;;;10.95;9.00;;;;;;;20.03;64.50;99629.61;2281125;78;21001;-78
2021/08/13 06:18:51;;;;;;;13.90;9.28;;;;;;;20.27;64.37;99634.55;2280799;77;21020;-79
2021/08/13 06:21:52;;;;;;;11.60;9.28;;;;;;;20.45;63.89;99631.23;2280613;78;20981;-78
2021/08/13 06:24:52;;;;;;;9.93;8.35;;;;;;;20.71;63.49;99630.36;2280963;78;21385;-79
2021/08/13 06:27:53;;;;;;;21.12;15.58;;;;;;;20.93;62.28;99633.10;2280672;77;21033;-79
2021/08/13 06:30:53;;;;;;;12.35;8.53;;;;;;;21.20;61.89;99632.17;2280443;78;20910;-79
2021/08/13 06:33:54;;;;;;;28.40;9.63;;;;;;;21.51;60.59;99630.71;2280408;78;20926;-79
2021/08/13 06:36:54;;;;;;;19.80;8.15;;;;;;;21.75;60.08;99634.68;2280519;78;21683;-79
2021/08/13 06:39:55;;;;;;;16.35;7.92;;;;;;;22.01;58.69;99628.80;2280802;78;21329;-79
2021/08/13 06:42:58;;;;;;;12.68;7.75;;;;;;;22.28;58.45;99637.09;2280680;78;21369;-79
2021/08/13 06:45:59;;;;;;;8.13;7.33;;;;;;;22.55;57.94;99629.83;2280189;78;21025;-79
2021/08/13 06:48:59;;;;;;;10.15;7.80;;;;;;;22.72;56.25;99630.75;2279816;78;20985;-79
2021/08/13 06:52:00;;;;;;;8.58;7.47;;;;;;;22.84;56.60;99630.02;2280408;78;20981;-78
2021/08/13 06:55:00;;;;;;;10.60;7.30;;;;;;;23.03;55.95;99629.08;2280411;78;20965;-80
2021/08/13 06:58:01;;;;;;;8.20;6.55;;;;;;;23.22;54.68;99628.13;2280728;78;21322;-79
2021/08/13 07:01:02;;;;;;;9.83;7.25;;;;;;;23.46;54.81;99626.16;2280921;78;21302;-79
2021/08/13 07:04:02;;;;;;;14.28;7.10;;;;;;;23.48;54.27;99630.98;2280554;78;20954;-78
2021/08/13 07:07:03;;;;;;;11.08;6.83;;;;;;;23.61;54.54;99629.33;2280532;78;21001;-79
2021/08/13 07:10:03;;;;;;;14.13;7.55;;;;;;;23.90;54.16;99637.81;2287697;77;21002;-80
2021/08/13 07:13:04;;;;;;;11.22;7.25;;;;;;;24.21;52.95;99633.75;2289480;78;21335;-79
2021/08/13 07:16:05;;;;;;;15.40;6.97;;;;;;;24.52;51.91;99634.59;2289272;78;20948;-78
2021/08/13 07:19:05;;;;;;;13.48;7.55;;;;;;;24.70;51.25;99637.99;2289206;78;20944;-78
2021/08/13 07:22:06;;;;;;;31.57;8.50;;;;;;;25.00;50.80;99640.59;2289035;78;20900;-78
2021/08/13 07:25:07;;;;;;;15.32;7.47;;;;;;;25.34;49.48;99638.98;2289444;78;20943;-78
2021/08/13 07:28:07;;;;;;;19.05;9.55;;;;;;;25.58;48.48;99638.55;2288888;78;21026;-80
2021/08/13 07:31:08;;;;;;;9.35;8.05;;;;;;;25.86;47.59;99625.93;2289244;78;20948;-80
2021/08/13 07:34:09;;;;;;;10.13;7.22;;;;;;;26.15;46.90;99620.83;2289363;78;21315;-80
2021/08/13 07:37:10;;;;;;;12.47;7.65;;;;;;;26.45;45.01;99624.11;2289270;78;21299;-79
2021/08/13 07:40:10;;;;;;;11.12;6.67;;;;;;;26.59;45.15;99615.05;2289494;78;20908;-79
2021/08/13 07:43:11;;;;;;;8.83;6.72;;;;;;;26.66;43.84;99612.98;2289015;78;20901;-80
2021/08/13 07:46:11;;;;;;;7.90;6.45;;;;;;;26.61;44.92;99614.52;2288398;78;20916;-80
2021/08/13 07:49:12;;;;;;;23.38;7.72;;;;;;;26.54;44.93;99610.81;2288213;78;21011;-78
2021/08/13 07:52:12;;;;;;;28.00;7.30;;;;;;;26.62;44.16;99610.91;2288130;78;20904;-80
2021/08/13 07:55:13;;;;;;;9.18;6.08;;;;;;;26.77;44.49;99608.52;2289591;78;20981;-81
2021/08/13 07:58:15;;;;;;;15.30;7.08;;;;;;;26.94;43.64;99612.72;2289549;78;21007;-80
2021/08/13 08:01:17;;;;;;;7.55;5.65;;;;;;;26.92;43.32;99615.94;2289541;78;20924;-81
2021/08/13 08:04:17;;;;;;;13.32;6.08;;;;;;;26.91;43.35;99612.86;2289135;78;20935;-79
2021/08/13 08:07:18;;;;;;;9.63;6.00;;;;;;;26.89;43.21;99611.58;2289518;78;21759;-79
2021/08/13 08:10:19;;;;;;;7.67;5.42;;;;;;;27.18;43.44;99614.38;2280840;77;20938;-80
2021/08/13 08:13:19;;;;;;;11.08;6.30;;;;;;;27.17;42.56;99607.27;2279818;78;21365;-80
2021/08/13 08:16:20;;;;;;;14.45;6.17;;;;;;;27.21;42.76;99611.56;2279517;78;21306;-80
2021/08/13 08:19:20;;;;;;;15.63;5.97;;;;;;;27.01;42.89;99612.03;2280076;78;21045;-81
2021/08/13 08:22:21;;;;;;;9.00;5.53;;;;;;;26.92;42.30;99604.75;2280549;78;20942;-79
2021/08/13 08:25:21;;;;;;;14.05;5.05;;;;;;;26.71;42.03;99609.65;2280665;78;21269;-80
2021/08/13 08:28:22;;;;;;;7.20;5.20;;;;;;;26.73;42.68;99608.25;2280657;78;20960;-80
2021/08/13 08:31:22;;;;;;;10.10;5.22;;;;;;;26.62;42.83;99614.92;2280888;78;20941;-80
2021/08/13 08:34:23;;;;;;;15.53;6.87;;;;;;;26.57;42.46;99611.56;2280923;78;20957;-80
2021/08/13 08:37:23;;;;;;;36.08;30.05;;;;;;;26.70;42.31;99603.02;2280159;78;20954;-81
2021/08/13 08:40:24;;;;;;;12.20;10.93;;;;;;;26.91;41.60;99612.86;2279554;78;20922;-79
2021/08/13 08:43:25;;;;;;;7.60;5.85;;;;;;;27.15;41.47;99609.16;2279779;78;21340;-80
2021/08/13 08:46:25;;;;;;;10.75;5.95;;;;;;;27.40;41.25;99617.45;2279352;78;21381;-79
2021/08/13 08:49:28;;;;;;;8.18;5.87;;;;;;;27.50;40.55;99616.97;2279752;78;20985;-80
2021/08/13 08:52:29;;;;;;;12.78;5.97;;;;;;;27.48;40.45;99612.14;2280033;78;20926;-80
2021/08/13 08:55:29;;;;;;;5.70;5.15;;;;;;;27.37;40.10;99621.14;2280423;78;20938;-80
2021/08/13 08:58:33;;;;;;;12.45;5.12;;;;;;;27.62;40.68;99621.41;2280774;78;20934;-79
2021/08/13 09:01:33;;;;;;;6.05;4.95;;;;;;;27.81;39.28;99619.19;2279626;78;20921;-78
2021/08/13 09:04:34;;;;;;;15.70;11.48;;;;;;;27.74;37.55;99619.50;2281057;78;20954;-80
2021/08/13 09:07:34;;;;;;;9.88;5.42;;;;;;;27.62;36.99;99616.05;2281040;78;21326;-81
2021/08/13 09:10:41;;;;;;;10.53;4.97;;;;;;;27.74;37.06;99620.37;2251408;77;21032;-80
2021/08/13 09:13:42;;;;;;;35.43;7.12;;;;;;;27.47;37.49;99621.13;2248857;78;20983;-82
2021/08/13 09:16:42;;;;;;;11.90;4.90;;;;;;;27.33;38.19;99629.38;2248583;78;20944;-80
2021/08/13 09:19:43;;;;;;;4.80;4.28;;;;;;;27.45;37.71;99618.11;2248493;78;21011;-81
2021/08/13 09:22:43;;;;;;;6.60;4.53;;;;;;;27.74;36.61;99627.08;2249285;78;20955;-81
2021/08/13 09:25:44;;;;;;;5.37;4.60;;;;;;;27.56;36.26;99622.05;2247811;78;21304;-81
2021/08/13 09:28:44;;;;;;;172.20;19.80;;;;;;;27.46;36.92;99617.17;2247520;78;20952;-80
2021/08/13 09:31:45;;;;;;;11.68;5.50;;;;;;;27.45;36.65;99624.34;2247716;79;20978;-80
2021/08/13 09:34:45;;;;;;;4.85;4.15;;;;;;;27.74;36.80;99615.01;2248058;78;21595;-80
2021/08/13 09:37:46;;;;;;;4.50;4.10;;;;;;;28.18;36.26;99613.42;2248353;78;20987;-80
2021/08/13 09:40:46;;;;;;;11.50;4.95;;;;;;;28.42;35.19;99610.92;2249148;78;20940;-79
2021/08/13 09:43:47;;;;;;;12.80;5.42;;;;;;;28.68;34.64;99610.14;2248839;78;21482;-80
2021/08/13 09:46:47;;;;;;;5.37;4.87;;;;;;;28.89;33.90;99611.77;2248866;78;20960;-78
2021/08/13 09:49:48;;;;;;;7.35;4.35;;;;;;;28.99;33.84;99609.02;2249116;78;21046;-79
2021/08/13 09:52:48;;;;;;;10.00;3.60;;;;;;;28.76;33.07;99614.18;2248919;78;21267;-80
2021/08/13 09:55:49;;;;;;;5.78;3.75;;;;;;;28.84;34.00;99612.48;2247920;78;21336;-79
2021/08/13 09:58:49;;;;;;;5.55;3.40;;;;;;;29.31;33.86;99614.53;2249125;79;20944;-80
2021/08/13 10:01:50;;;;;;;4.55;3.58;;;;;;;29.62;33.64;99622.77;2247893;78;20963;-80
2021/08/13 10:04:51;;;;;;;4.25;3.65;;;;;;;29.69;32.77;99617.92;2247393;79;21002;-80
2021/08/13 10:07:52;;;;;;;3.67;3.37;;;;;;;29.48;33.08;99618.13;2247659;78;20993;-80
2021/08/13 10:10:53;;;;;;;11.55;4.28;;;;;;;29.27;32.63;99616.51;2277430;78;21434;-79
2021/08/13 10:13:53;;;;;;;12.93;5.15;;;;;;;29.27;33.33;99608.92;2279880;78;20934;-79
2021/08/13 10:16:54;;;;;;;8.65;7.17;;;;;;;29.21;32.95;99611.93;2279255;78;20930;-79
2021/08/13 10:19:54;;;;;;;23.77;6.25;;;;;;;28.87;33.92;99608.77;2278883;78;21959;-80
2021/08/13 10:22:58;;;;;;;5.25;3.50;;;;;;;28.75;35.03;99603.52;2278878;78;21381;-79
2021/08/13 10:25:58;;;;;;;6.20;3.50;;;;;;;28.65;33.95;99603.58;2278559;78;20969;-80
2021/08/13 10:28:59;;;;;;;3.98;3.37;;;;;;;28.90;34.56;99609.48;2278663;78;20945;-78
2021/08/13 10:31:59;;;;;;;3.65;3.35;;;;;;;29.12;34.26;99599.36;2279527;78;20934;-80
2021/08/13 10:35:00;;;;;;;5.00;3.90;;;;;;;29.34;33.83;99608.52;2279639;77;21282;-77
2021/08/13 10:38:00;;;;;;;6.87;4.03;;;;;;;29.13;34.01;99603.79;2280380;77;21290;-80
2021/08/13 10:41:03;;;;;;;6.65;3.72;;;;;;;29.28;33.63;99602.12;2280769;78;20997;-81
2021/08/13 10:44:04;;;;;;;18.92;4.47;;;;;;;29.34;33.88;99594.20;2279514;78;20906;-80
2021/08/13 10:47:04;;;;;;;4.30;3.90;;;;;;;29.54;33.14;99594.55;2279940;78;21003;-79
2021/08/13 10:50:05;;;;;;;7.58;5.47;;;;;;;29.57;32.70;99591.21;2280200;78;21053;-79
2021/08/13 10:53:05;;;;;;;4.72;4.25;;;;;;;29.74;32.93;99588.47;2279899;78;20925;-79
2021/08/13 10:56:06;;;;;;;9.83;4.20;;;;;;;29.75;32.38;99584.83;2279625;78;20938;-80
2021/08/13 10:59:06;;;;;;;4.40;3.55;;;;;;;29.89;31.92;99584.54;2280179;78;20981;-80
2021/08/13 11:02:07;;;;;;;6.17;3.62;;;;;;;29.87;30.95;99586.45;2280613;78;20953;-79
2021/08/13 11:05:07;;;;;;;8.25;3.83;;;;;;;29.86;30.08;99585.58;2279601;78;20902;-78
2021/08/13 11:08:08;;;;;;;4.22;3.85;;;;;;;30.00;30.37;99576.73;2280210;77;21611;-80
2021/08/13 11:11:08;;;;;;;5.40;3.35;;;;;;;30.08;31.52;99571.82;2251855;78;21719;-79
2021/08/13 11:14:09;;;;;;;5.05;3.60;;;;;;;30.04;30.90;99569.78;2248383;79;20952;-79
2021/08/13 11:17:10;;;;;;;5.95;3.15;;;;;;;30.15;31.44;99559.75;2248402;78;20912;-78
2021/08/13 11:20:10;;;;;;;185.00;14.83;;;;;;;30.32;31.23;99555.61;2248136;79;20979;-82
2021/08/13 11:23:10;;;;;;;26.57;7.08;;;;;;;30.39;31.06;99555.67;2247925;78;20932;-79
2021/08/13 11:26:11;;;;;;;6.42;4.15;;;;;;;30.47;30.75;99559.75;2247983;78;20959;-80
2021/08/13 11:29:11;;;;;;;33.98;6.25;;;;;;;30.52;31.51;99554.95;2248796;78;20935;-80
2021/08/13 11:32:12;;;;;;;5.12;3.17;;;;;;;30.21;31.43;99547.75;2248822;79;20948;-80
2021/08/13 11:35:12;;;;;;;4.55;3.77;;;;;;;29.80;32.13;99550.94;2249106;78;20994;-81
2021/08/13 11:38:21;;;;;;;9.30;3.77;;;;;;;29.77;31.96;99543.03;2249181;79;21010;-79
2021/08/13 11:41:24;;;;;;;9.03;3.92;;;;;;;29.62;32.45;99541.20;2248384;78;21324;-80
2021/08/13 11:44:25;;;;;;;9.03;3.70;;;;;;;29.69;32.62;99536.73;2248602;79;21665;-81
2021/08/13 11:47:26;;;;;;;4.05;3.65;;;;;;;29.83;32.25;99535.09;2248612;78;20975;-80
2021/08/13 11:50:27;;;;;;;5.28;3.80;;;;;;;29.88;33.27;99531.19;2248789;79;21047;-82
2021/08/13 11:53:27;;;;;;;4.42;3.83;;;;;;;29.95;32.79;99530.37;2249032;78;20967;-80
2021/08/13 11:56:28;;;;;;;4.65;3.62;;;;;;;29.97;31.48;99532.50;2248414;78;20963;-80
2021/08/13 11:59:28;;;;;;;8.13;3.40;;;;;;;30.07;31.46;99528.36;2248421;79;20932;-81
2021/08/13 12:02:30;;;;;;;6.03;3.70;;;;;;;30.26;31.47;99527.69;2248612;78;21300;-80
2021/08/13 12:05:32;;;;;;;5.80;3.35;;;;;;;30.15;31.64;99530.13;2248170;78;20963;-80
2021/08/13 12:08:32;;;;;;;8.83;6.53;;;;;;;30.15;32.07;99528.78;2248836;79;20983;-80
2021/08/13 12:11:33;;;;;;;27.10;4.92;;;;;;;30.27;31.73;99528.08;2277561;77;20989;-81
2021/08/13 12:14:33;;;;;;;10.55;3.85;;;;;;;30.31;31.49;99522.90;2281323;78;20996;-81
2021/08/13 12:17:34;;;;;;;6.10;3.72;;;;;;;30.41;31.21;99525.48;2281410;78;21023;-81
2021/08/13 12:20:34;;;;;;;7.15;3.60;;;;;;;30.41;30.48;99525.48;2281504;78;21013;-80
2021/08/13 12:23:35;;;;;;;5.08;3.62;;;;;;;30.26;31.57;99529.51;2282096;77;20969;-80
2021/08/13 12:26:35;;;;;;;7.62;4.12;;;;;;;30.46;30.47;99540.50;2281047;77;21644;-81
2021/08/13 12:29:36;;;;;;;6.87;4.08;;;;;;;30.52;30.22;99537.45;2281455;78;21314;-80
2021/08/13 12:32:37;;;;;;;9.68;3.67;;;;;;;30.53;30.43;99536.01;2280977;78;20973;-82
2021/08/13 12:35:37;;;;;;;5.70;3.85;;;;;;;30.65;30.15;99529.05;2280776;77;20969;-81
2021/08/13 12:38:38;;;;;;;6.00;3.50;;;;;;;30.73;30.07;99530.81;2280575;78;20925;-81
2021/08/13 12:41:38;;;;;;;4.95;3.55;;;;;;;30.86;29.94;99514.77;2280689;78;20957;-81
2021/08/13 12:44:39;;;;;;;8.35;3.95;;;;;;;30.73;29.85;99513.30;2279848;78;20961;-80
2021/08/13 12:47:39;;;;;;;18.42;5.05;;;;;;;30.66;30.90;99503.37;2281137;78;21368;-82
2021/08/13 12:50:40;;;;;;;6.00;3.87;;;;;;;30.78;31.10;99499.06;2280443;78;20978;-81
2021/08/13 12:53:40;;;;;;;4.40;3.70;;;;;;;30.66;30.80;99507.89;2280998;77;20975;-81
2021/08/13 12:56:41;;;;;;;4.70;3.80;;;;;;;30.58;31.47;99506.10;2281100;78;20993;-81
2021/08/13 12:59:43;;;;;;;4.95;3.45;;;;;;;30.58;30.80;99502.06;2280648;78;21327;-80
2021/08/13 13:02:43;;;;;;;14.83;4.63;;;;;;;30.60;30.74;99491.61;2280801;78;20980;-80
2021/08/13 13:05:44;;;;;;;6.42;4.25;;;;;;;30.67;31.33;99489.41;2281367;78;20973;-81
2021/08/13 13:08:45;;;;;;;5.35;3.87;;;;;;;30.79;30.80;99490.02;2280997;78;20985;-80
2021/08/13 13:11:45;;;;;;;5.05;3.85;;;;;;;30.82;31.19;99487.62;2252569;77;20960;-80
2021/08/13 13:14:46;;;;;;;7.03;4.12;;;;;;;30.87;30.93;99486.38;2249260;79;20944;-81
2021/08/13 13:17:46;;;;;;;7.72;4.22;;;;;;;30.86;30.80;99488.69;2249185;79;21327;-81
2021/08/13 13:20:47;;;;;;;8.75;4.33;;;;;;;30.88;30.83;99480.50;2253201;78;21073;-80
2021/08/13 13:23:47;;;;;;;5.87;3.87;;;;;;;30.87;30.57;99486.86;2259775;78;20936;-81
2021/08/13 13:26:48;;;;;;;7.80;4.22;;;;;;;30.83;30.75;99470.48;2249443;78;20951;-80
2021/08/13 13:29:48;;;;;;;10.48;4.08;;;;;;;30.81;31.09;99474.63;2248279;78;20951;-80
2021/08/13 13:32:49;;;;;;;7.87;4.08;;;;;;;30.85;31.62;99468.56;2249228;79;21315;-81
2021/08/13 13:35:49;;;;;;;4.45;3.95;;;;;;;30.90;31.27;99470.49;2248953;78;21284;-81
2021/08/13 13:38:50;;;;;;;8.20;5.15;;;;;;;30.84;31.74;99469.05;2247622;78;20944;-80
2021/08/13 13:41:50;;;;;;;20.97;5.22;;;;;;;30.98;31.84;99470.41;2248164;78;20928;-81
2021/08/13 13:44:51;;;;;;;10.10;4.17;;;;;;;31.17;31.83;99474.20;2248633;78;20948;-82
2021/08/13 13:47:51;;;;;;;44.80;7.05;;;;;;;31.35;31.29;99470.86;2248968;79;21364;-79
2021/08/13 13:50:52;;;;;;;16.90;5.20;;;;;;;31.28;30.92;99464.12;2252197;78;20994;-81
2021/08/13 13:53:52;;;;;;;5.85;4.40;;;;;;;31.20;31.80;99464.57;2250232;78;20972;-80
2021/08/13 13:56:53;;;;;;;6.10;4.85;;;;;;;31.19;31.66;99457.92;2248618;78;20964;-80
2021/08/13 13:59:53;;;;;;;16.30;5.60;;;;;;;31.38;31.20;99458.53;2248851;78;20964;-80
2021/08/13 14:02:54;;;;;;;7.03;3.77;;;;;;;31.48;31.31;99459.67;2249108;78;21331;-81